sensor_id;sensor_type;location;lat;lon;timestamp;P1;durP1;ratioP1;P2;durP2;ratioP2
76063;SDS011;64762;52.006;8.424;2023-04-06T00:00:32;11.95;;;5.38;;
76063;SDS011;64762;52.006;8.424;2023-04-06T00:02:57;11.93;;;5.85;;
76063;SDS011;64762;52.006;8.424;2023-04-06T00:07:53;15.27;;;6.68;;
76063;SDS011;64762;52.006;8.424;2023-04-06T00:10:20;12.05;;;5.95;;
76063;SDS011;64762;52.006;8.424;2023-04-06T00:12:46;14.45;;;5.15;;
76063;SDS011;64762;52.006;8.424;2023-04-06T00:15:11;12.70;;;5.73;;
76063;SDS011;64762;52.006;8.424;2023-04-06T00:17:36;9.23;;;5.20;;
76063;SDS011;64762;52.006;8.424;2023-04-06T00:20:02;13.87;;;6.83;;
76063;SDS011;64762;52.006;8.424;2023-04-06T00:22:27;17.25;;;6.35;;
76063;SDS011;64762;52.006;8.424;2023-04-06T00:24:53;11.17;;;5.43;;
76063;SDS011;64762;52.006;8.424;2023-04-06T00:27:18;11.23;;;4.60;;
76063;SDS011;64762;52.006;8.424;2023-04-06T00:29:44;12.63;;;5.53;;
76063;SDS011;64762;52.006;8.424;2023-04-06T00:32:09;10.45;;;5.43;;
76063;SDS011;64762;52.006;8.424;2023-04-06T00:34:35;11.70;;;5.63;;
76063;SDS011;64762;52.006;8.424;2023-04-06T00:37:00;9.27;;;5.47;;
76063;SDS011;64762;52.006;8.424;2023-04-06T00:39:25;17.70;;;6.23;;
76063;SDS011;64762;52.006;8.424;2023-04-06T00:41:51;12.57;;;5.50;;
76063;SDS011;64762;52.006;8.424;2023-04-06T00:44:17;10.30;;;5.72;;
76063;SDS011;64762;52.006;8.424;2023-04-06T00:46:43;11.48;;;6.03;;
76063;SDS011;64762;52.006;8.424;2023-04-06T00:49:08;15.13;;;5.63;;
76063;SDS011;64762;52.006;8.424;2023-04-06T00:51:34;10.80;;;5.23;;
76063;SDS011;64762;52.006;8.424;2023-04-06T00:53:59;9.87;;;5.40;;
76063;SDS011;64762;52.006;8.424;2023-04-06T00:56:24;12.50;;;5.95;;
76063;SDS011;64762;52.006;8.424;2023-04-06T00:58:51;12.18;;;5.63;;
76063;SDS011;64762;52.006;8.424;2023-04-06T01:01:16;13.47;;;5.73;;
76063;SDS011;64762;52.006;8.424;2023-04-06T01:03:41;13.03;;;5.70;;
76063;SDS011;64762;52.006;8.424;2023-04-06T01:06:09;13.00;;;5.75;;
76063;SDS011;64762;52.006;8.424;2023-04-06T01:08:34;12.43;;;6.13;;
76063;SDS011;64762;52.006;8.424;2023-04-06T01:11:00;10.10;;;5.80;;
76063;SDS011;64762;52.006;8.424;2023-04-06T01:13:28;15.02;;;6.32;;
76063;SDS011;64762;52.006;8.424;2023-04-06T01:15:53;15.03;;;5.60;;
76063;SDS011;64762;52.006;8.424;2023-04-06T01:18:24;16.20;;;6.30;;
76063;SDS011;64762;52.006;8.424;2023-04-06T01:20:50;11.88;;;6.22;;
76063;SDS011;64762;52.006;8.424;2023-04-06T01:23:15;14.77;;;6.17;;
76063;SDS011;64762;52.006;8.424;2023-04-06T01:25:41;16.67;;;6.10;;
76063;SDS011;64762;52.006;8.424;2023-04-06T01:28:06;10.50;;;5.67;;
76063;SDS011;64762;52.006;8.424;2023-04-06T01:30:31;10.80;;;5.70;;
76063;SDS011;64762;52.006;8.424;2023-04-06T01:32:57;12.80;;;5.60;;
76063;SDS011;64762;52.006;8.424;2023-04-06T01:35:22;11.17;;;6.10;;
76063;SDS011;64762;52.006;8.424;2023-04-06T01:37:47;10.77;;;6.10;;
76063;SDS011;64762;52.006;8.424;2023-04-06T01:40:12;13.17;;;6.17;;
76063;SDS011;64762;52.006;8.424;2023-04-06T01:42:38;12.23;;;5.95;;
76063;SDS011;64762;52.006;8.424;2023-04-06T01:45:04;13.38;;;6.63;;
76063;SDS011;64762;52.006;8.424;2023-04-06T01:47:30;13.40;;;6.28;;
76063;SDS011;64762;52.006;8.424;2023-04-06T01:49:55;11.38;;;6.30;;
76063;SDS011;64762;52.006;8.424;2023-04-06T01:52:21;11.63;;;5.90;;
76063;SDS011;64762;52.006;8.424;2023-04-06T01:54:46;12.87;;;6.10;;
76063;SDS011;64762;52.006;8.424;2023-04-06T01:57:11;12.27;;;6.60;;
76063;SDS011;64762;52.006;8.424;2023-04-06T01:59:37;15.10;;;6.07;;
76063;SDS011;64762;52.006;8.424;2023-04-06T02:02:02;17.30;;;6.57;;
76063;SDS011;64762;52.006;8.424;2023-04-06T02:04:27;11.47;;;6.20;;
76063;SDS011;64762;52.006;8.424;2023-04-06T02:06:52;11.93;;;5.90;;
76063;SDS011;64762;52.006;8.424;2023-04-06T02:09:18;10.87;;;5.47;;
76063;SDS011;64762;52.006;8.424;2023-04-06T02:11:43;11.00;;;5.57;;
76063;SDS011;64762;52.006;8.424;2023-04-06T02:14:08;13.73;;;6.87;;
76063;SDS011;64762;52.006;8.424;2023-04-06T02:16:33;14.03;;;6.23;;
76063;SDS011;64762;52.006;8.424;2023-04-06T02:18:59;13.83;;;6.60;;
76063;SDS011;64762;52.006;8.424;2023-04-06T02:21:24;16.50;;;6.43;;
76063;SDS011;64762;52.006;8.424;2023-04-06T02:23:49;10.67;;;5.57;;
76063;SDS011;64762;52.006;8.424;2023-04-06T02:26:15;15.30;;;6.07;;
76063;SDS011;64762;52.006;8.424;2023-04-06T02:28:40;14.30;;;6.73;;
76063;SDS011;64762;52.006;8.424;2023-04-06T02:31:05;14.18;;;6.95;;
76063;SDS011;64762;52.006;8.424;2023-04-06T02:33:31;16.83;;;6.37;;
76063;SDS011;64762;52.006;8.424;2023-04-06T02:35:56;12.97;;;6.20;;
76063;SDS011;64762;52.006;8.424;2023-04-06T02:38:21;12.87;;;6.07;;
76063;SDS011;64762;52.006;8.424;2023-04-06T02:40:47;13.43;;;6.37;;
76063;SDS011;64762;52.006;8.424;2023-04-06T02:43:12;12.63;;;6.03;;
76063;SDS011;64762;52.006;8.424;2023-04-06T02:45:37;14.57;;;5.90;;
76063;SDS011;64762;52.006;8.424;2023-04-06T02:48:03;11.03;;;5.50;;
76063;SDS011;64762;52.006;8.424;2023-04-06T02:50:28;12.77;;;5.90;;
76063;SDS011;64762;52.006;8.424;2023-04-06T02:52:53;15.00;;;6.03;;
76063;SDS011;64762;52.006;8.424;2023-04-06T02:55:19;16.70;;;6.47;;
76063;SDS011;64762;52.006;8.424;2023-04-06T02:57:44;13.60;;;5.95;;
76063;SDS011;64762;52.006;8.424;2023-04-06T03:00:10;14.80;;;5.93;;
76063;SDS011;64762;52.006;8.424;2023-04-06T03:02:36;13.32;;;7.03;;
76063;SDS011;64762;52.006;8.424;2023-04-06T03:05:02;13.93;;;6.03;;
76063;SDS011;64762;52.006;8.424;2023-04-06T03:07:28;14.43;;;6.97;;
76063;SDS011;64762;52.006;8.424;2023-04-06T03:09:53;10.37;;;5.83;;
76063;SDS011;64762;52.006;8.424;2023-04-06T03:12:18;13.40;;;6.23;;
76063;SDS011;64762;52.006;8.424;2023-04-06T03:14:44;15.60;;;6.63;;
76063;SDS011;64762;52.006;8.424;2023-04-06T03:17:09;14.77;;;5.95;;
76063;SDS011;64762;52.006;8.424;2023-04-06T03:19:35;16.25;;;6.72;;
76063;SDS011;64762;52.006;8.424;2023-04-06T03:22:00;19.93;;;6.67;;
76063;SDS011;64762;52.006;8.424;2023-04-06T03:24:26;11.63;;;6.05;;
76063;SDS011;64762;52.006;8.424;2023-04-06T03:26:51;14.60;;;6.37;;
76063;SDS011;64762;52.006;8.424;2023-04-06T03:29:16;12.60;;;6.13;;
76063;SDS011;64762;52.006;8.424;2023-04-06T03:31:41;11.27;;;6.23;;
76063;SDS011;64762;52.006;8.424;2023-04-06T03:34:07;12.83;;;6.43;;
76063;SDS011;64762;52.006;8.424;2023-04-06T03:36:33;12.70;;;5.97;;
76063;SDS011;64762;52.006;8.424;2023-04-06T03:38:59;13.35;;;6.25;;
76063;SDS011;64762;52.006;8.424;2023-04-06T03:41:25;17.17;;;6.50;;
76063;SDS011;64762;52.006;8.424;2023-04-06T03:43:50;12.77;;;6.83;;
76063;SDS011;64762;52.006;8.424;2023-04-06T03:46:15;12.70;;;6.73;;
76063;SDS011;64762;52.006;8.424;2023-04-06T03:48:40;13.07;;;5.93;;
76063;SDS011;64762;52.006;8.424;2023-04-06T03:51:06;16.40;;;5.60;;
76063;SDS011;64762;52.006;8.424;2023-04-06T03:53:31;11.87;;;5.80;;
76063;SDS011;64762;52.006;8.424;2023-04-06T03:55:56;15.00;;;6.23;;
76063;SDS011;64762;52.006;8.424;2023-04-06T03:58:22;12.43;;;6.23;;
76063;SDS011;64762;52.006;8.424;2023-04-06T04:00:47;14.32;;;6.60;;
76063;SDS011;64762;52.006;8.424;2023-04-06T04:03:12;14.30;;;6.30;;
76063;SDS011;64762;52.006;8.424;2023-04-06T04:05:38;16.30;;;6.80;;
76063;SDS011;64762;52.006;8.424;2023-04-06T04:08:03;14.90;;;5.87;;
76063;SDS011;64762;52.006;8.424;2023-04-06T04:10:28;14.90;;;6.65;;
76063;SDS011;64762;52.006;8.424;2023-04-06T04:12:54;13.90;;;6.15;;
76063;SDS011;64762;52.006;8.424;2023-04-06T04:15:19;13.27;;;6.05;;
76063;SDS011;64762;52.006;8.424;2023-04-06T04:17:45;13.40;;;6.00;;
76063;SDS011;64762;52.006;8.424;2023-04-06T04:20:11;14.07;;;6.03;;
76063;SDS011;64762;52.006;8.424;2023-04-06T04:22:37;14.60;;;6.28;;
76063;SDS011;64762;52.006;8.424;2023-04-06T04:25:02;13.63;;;6.93;;
76063;SDS011;64762;52.006;8.424;2023-04-06T04:27:27;13.80;;;6.77;;
76063;SDS011;64762;52.006;8.424;2023-04-06T04:29:53;15.63;;;7.17;;
76063;SDS011;64762;52.006;8.424;2023-04-06T04:32:18;15.20;;;6.20;;
76063;SDS011;64762;52.006;8.424;2023-04-06T04:34:43;13.23;;;5.80;;
76063;SDS011;64762;52.006;8.424;2023-04-06T04:37:09;15.43;;;6.60;;
76063;SDS011;64762;52.006;8.424;2023-04-06T04:39:34;10.67;;;6.10;;
76063;SDS011;64762;52.006;8.424;2023-04-06T04:41:59;21.17;;;7.17;;
76063;SDS011;64762;52.006;8.424;2023-04-06T04:44:24;20.50;;;7.10;;
76063;SDS011;64762;52.006;8.424;2023-04-06T04:46:50;16.53;;;6.57;;
76063;SDS011;64762;52.006;8.424;2023-04-06T04:49:15;14.17;;;6.37;;
76063;SDS011;64762;52.006;8.424;2023-04-06T04:51:40;14.97;;;6.70;;
76063;SDS011;64762;52.006;8.424;2023-04-06T04:54:06;15.43;;;6.57;;
76063;SDS011;64762;52.006;8.424;2023-04-06T04:56:31;17.47;;;6.80;;
76063;SDS011;64762;52.006;8.424;2023-04-06T04:58:56;14.13;;;6.43;;
76063;SDS011;64762;52.006;8.424;2023-04-06T05:01:22;17.45;;;7.53;;
76063;SDS011;64762;52.006;8.424;2023-04-06T05:03:47;18.03;;;7.07;;
76063;SDS011;64762;52.006;8.424;2023-04-06T05:06:12;16.13;;;6.87;;
76063;SDS011;64762;52.006;8.424;2023-04-06T05:08:37;14.23;;;6.17;;
76063;SDS011;64762;52.006;8.424;2023-04-06T05:11:03;16.07;;;6.63;;
76063;SDS011;64762;52.006;8.424;2023-04-06T05:13:29;13.98;;;6.50;;
76063;SDS011;64762;52.006;8.424;2023-04-06T05:15:55;16.52;;;6.40;;
76063;SDS011;64762;52.006;8.424;2023-04-06T05:18:20;15.03;;;5.90;;
76063;SDS011;64762;52.006;8.424;2023-04-06T05:20:46;14.65;;;6.95;;
76063;SDS011;64762;52.006;8.424;2023-04-06T05:23:11;18.83;;;6.55;;
76063;SDS011;64762;52.006;8.424;2023-04-06T05:25:37;16.10;;;6.60;;
76063;SDS011;64762;52.006;8.424;2023-04-06T05:28:03;12.20;;;5.47;;
76063;SDS011;64762;52.006;8.424;2023-04-06T05:30:28;18.40;;;6.70;;
76063;SDS011;64762;52.006;8.424;2023-04-06T05:32:53;14.60;;;7.27;;
76063;SDS011;64762;52.006;8.424;2023-04-06T05:35:19;23.30;;;7.95;;
76063;SDS011;64762;52.006;8.424;2023-04-06T05:37:44;17.57;;;6.70;;
76063;SDS011;64762;52.006;8.424;2023-04-06T05:40:10;16.58;;;6.60;;
76063;SDS011;64762;52.006;8.424;2023-04-06T05:42:39;19.90;;;6.82;;
76063;SDS011;64762;52.006;8.424;2023-04-06T05:45:06;19.05;;;6.63;;
76063;SDS011;64762;52.006;8.424;2023-04-06T05:47:31;20.20;;;7.00;;
76063;SDS011;64762;52.006;8.424;2023-04-06T05:49:57;18.90;;;7.27;;
76063;SDS011;64762;52.006;8.424;2023-04-06T05:52:22;22.02;;;7.88;;
76063;SDS011;64762;52.006;8.424;2023-04-06T05:54:48;14.63;;;6.57;;
76063;SDS011;64762;52.006;8.424;2023-04-06T05:57:13;18.52;;;6.88;;
76063;SDS011;64762;52.006;8.424;2023-04-06T05:59:39;16.20;;;7.60;;
76063;SDS011;64762;52.006;8.424;2023-04-06T06:02:04;19.35;;;6.63;;
76063;SDS011;64762;52.006;8.424;2023-04-06T06:04:30;14.50;;;5.65;;
76063;SDS011;64762;52.006;8.424;2023-04-06T06:06:55;15.32;;;6.50;;
76063;SDS011;64762;52.006;8.424;2023-04-06T06:09:20;20.77;;;6.27;;
76063;SDS011;64762;52.006;8.424;2023-04-06T06:11:46;18.77;;;6.53;;
76063;SDS011;64762;52.006;8.424;2023-04-06T06:14:11;19.38;;;6.50;;
76063;SDS011;64762;52.006;8.424;2023-04-06T06:16:36;16.33;;;7.30;;
76063;SDS011;64762;52.006;8.424;2023-04-06T06:19:02;13.40;;;6.67;;
76063;SDS011;64762;52.006;8.424;2023-04-06T06:21:27;14.37;;;5.97;;
76063;SDS011;64762;52.006;8.424;2023-04-06T06:23:53;21.67;;;6.60;;
76063;SDS011;64762;52.006;8.424;2023-04-06T06:26:19;21.15;;;7.35;;
76063;SDS011;64762;52.006;8.424;2023-04-06T06:28:45;16.23;;;7.03;;
76063;SDS011;64762;52.006;8.424;2023-04-06T06:31:10;14.98;;;6.13;;
76063;SDS011;64762;52.006;8.424;2023-04-06T06:33:36;15.25;;;6.50;;
76063;SDS011;64762;52.006;8.424;2023-04-06T06:36:01;12.30;;;5.73;;
76063;SDS011;64762;52.006;8.424;2023-04-06T06:38:26;14.73;;;6.23;;
76063;SDS011;64762;52.006;8.424;2023-04-06T06:40:52;15.07;;;6.50;;
76063;SDS011;64762;52.006;8.424;2023-04-06T06:43:17;16.75;;;6.85;;
76063;SDS011;64762;52.006;8.424;2023-04-06T06:45:42;15.40;;;7.53;;
76063;SDS011;64762;52.006;8.424;2023-04-06T06:48:08;17.65;;;6.50;;
76063;SDS011;64762;52.006;8.424;2023-04-06T06:50:34;13.98;;;6.93;;
76063;SDS011;64762;52.006;8.424;2023-04-06T06:52:59;13.45;;;6.70;;
76063;SDS011;64762;52.006;8.424;2023-04-06T06:55:25;14.85;;;7.05;;
76063;SDS011;64762;52.006;8.424;2023-04-06T06:57:52;13.73;;;5.85;;
76063;SDS011;64762;52.006;8.424;2023-04-06T07:00:18;13.13;;;6.40;;
76063;SDS011;64762;52.006;8.424;2023-04-06T07:02:45;14.68;;;6.18;;
76063;SDS011;64762;52.006;8.424;2023-04-06T07:05:11;17.50;;;7.65;;
76063;SDS011;64762;52.006;8.424;2023-04-06T07:07:36;14.65;;;6.78;;
76063;SDS011;64762;52.006;8.424;2023-04-06T07:10:02;16.90;;;7.25;;
76063;SDS011;64762;52.006;8.424;2023-04-06T07:12:27;13.73;;;7.18;;
76063;SDS011;64762;52.006;8.424;2023-04-06T07:14:52;15.07;;;7.20;;
76063;SDS011;64762;52.006;8.424;2023-04-06T07:17:18;15.50;;;7.40;;
76063;SDS011;64762;52.006;8.424;2023-04-06T07:19:43;17.25;;;7.55;;
76063;SDS011;64762;52.006;8.424;2023-04-06T07:22:09;15.23;;;7.13;;
76063;SDS011;64762;52.006;8.424;2023-04-06T07:24:34;13.03;;;6.37;;
76063;SDS011;64762;52.006;8.424;2023-04-06T07:27:00;16.77;;;7.85;;
76063;SDS011;64762;52.006;8.424;2023-04-06T07:29:25;16.35;;;7.22;;
76063;SDS011;64762;52.006;8.424;2023-04-06T07:31:51;15.40;;;7.20;;
76063;SDS011;64762;52.006;8.424;2023-04-06T07:34:16;15.40;;;7.70;;
76063;SDS011;64762;52.006;8.424;2023-04-06T07:36:42;13.95;;;7.57;;
76063;SDS011;64762;52.006;8.424;2023-04-06T07:39:07;19.43;;;8.07;;
76063;SDS011;64762;52.006;8.424;2023-04-06T07:41:32;19.80;;;7.90;;
76063;SDS011;64762;52.006;8.424;2023-04-06T07:43:58;16.43;;;7.50;;
76063;SDS011;64762;52.006;8.424;2023-04-06T07:46:23;17.77;;;8.03;;
76063;SDS011;64762;52.006;8.424;2023-04-06T07:48:49;15.70;;;8.10;;
76063;SDS011;64762;52.006;8.424;2023-04-06T07:51:15;25.58;;;8.23;;
76063;SDS011;64762;52.006;8.424;2023-04-06T07:53:42;15.82;;;7.82;;
76063;SDS011;64762;52.006;8.424;2023-04-06T07:56:08;16.40;;;8.63;;
76063;SDS011;64762;52.006;8.424;2023-04-06T07:58:34;13.50;;;7.30;;
76063;SDS011;64762;52.006;8.424;2023-04-06T08:00:59;16.27;;;7.87;;
76063;SDS011;64762;52.006;8.424;2023-04-06T08:03:24;15.73;;;8.53;;
76063;SDS011;64762;52.006;8.424;2023-04-06T08:05:50;15.55;;;7.47;;
76063;SDS011;64762;52.006;8.424;2023-04-06T08:08:18;16.98;;;7.90;;
76063;SDS011;64762;52.006;8.424;2023-04-06T08:10:46;14.93;;;7.90;;
76063;SDS011;64762;52.006;8.424;2023-04-06T08:13:11;14.60;;;7.55;;
76063;SDS011;64762;52.006;8.424;2023-04-06T08:15:37;17.55;;;7.80;;
76063;SDS011;64762;52.006;8.424;2023-04-06T08:18:02;17.57;;;7.90;;
76063;SDS011;64762;52.006;8.424;2023-04-06T08:20:27;16.57;;;7.57;;
76063;SDS011;64762;52.006;8.424;2023-04-06T08:22:53;15.70;;;7.93;;
76063;SDS011;64762;52.006;8.424;2023-04-06T08:25:18;20.63;;;8.90;;
76063;SDS011;64762;52.006;8.424;2023-04-06T08:27:43;16.00;;;7.33;;
76063;SDS011;64762;52.006;8.424;2023-04-06T08:30:09;20.33;;;8.90;;
76063;SDS011;64762;52.006;8.424;2023-04-06T08:32:35;17.92;;;8.35;;
76063;SDS011;64762;52.006;8.424;2023-04-06T08:35:00;17.85;;;8.57;;
76063;SDS011;64762;52.006;8.424;2023-04-06T08:37:26;20.40;;;8.63;;
76063;SDS011;64762;52.006;8.424;2023-04-06T08:39:51;21.75;;;9.05;;
76063;SDS011;64762;52.006;8.424;2023-04-06T08:42:18;16.23;;;7.97;;
76063;SDS011;64762;52.006;8.424;2023-04-06T08:44:45;17.20;;;7.80;;
76063;SDS011;64762;52.006;8.424;2023-04-06T08:47:11;22.92;;;9.05;;
76063;SDS011;64762;52.006;8.424;2023-04-06T08:49:37;20.65;;;8.20;;
76063;SDS011;64762;52.006;8.424;2023-04-06T08:52:05;20.55;;;8.70;;
76063;SDS011;64762;52.006;8.424;2023-04-06T08:54:32;19.17;;;8.80;;
76063;SDS011;64762;52.006;8.424;2023-04-06T08:56:57;19.33;;;8.50;;
76063;SDS011;64762;52.006;8.424;2023-04-06T08:59:23;18.92;;;8.77;;
76063;SDS011;64762;52.006;8.424;2023-04-06T09:01:49;17.73;;;8.10;;
76063;SDS011;64762;52.006;8.424;2023-04-06T09:04:16;21.77;;;8.85;;
76063;SDS011;64762;52.006;8.424;2023-04-06T09:06:41;18.33;;;8.43;;
76063;SDS011;64762;52.006;8.424;2023-04-06T09:09:06;20.30;;;8.65;;
76063;SDS011;64762;52.006;8.424;2023-04-06T09:14:36;19.52;;;8.23;;
76063;SDS011;64762;52.006;8.424;2023-04-06T09:17:02;16.80;;;8.38;;
76063;SDS011;64762;52.006;8.424;2023-04-06T09:19:28;20.05;;;8.65;;
76063;SDS011;64762;52.006;8.424;2023-04-06T09:22:06;18.65;;;8.57;;
76063;SDS011;64762;52.006;8.424;2023-04-06T09:24:44;18.77;;;8.75;;
76063;SDS011;64762;52.006;8.424;2023-04-06T09:27:16;18.48;;;8.95;;
76063;SDS011;64762;52.006;8.424;2023-04-06T09:29:42;24.63;;;9.03;;
76063;SDS011;64762;52.006;8.424;2023-04-06T09:32:08;21.60;;;8.88;;
76063;SDS011;64762;52.006;8.424;2023-04-06T09:34:36;22.35;;;8.77;;
76063;SDS011;64762;52.006;8.424;2023-04-06T09:37:17;17.45;;;8.63;;
76063;SDS011;64762;52.006;8.424;2023-04-06T09:39:44;20.00;;;9.80;;
76063;SDS011;64762;52.006;8.424;2023-04-06T09:42:09;19.20;;;8.90;;
76063;SDS011;64762;52.006;8.424;2023-04-06T09:44:36;18.33;;;9.13;;
76063;SDS011;64762;52.006;8.424;2023-04-06T09:47:01;17.93;;;8.90;;
76063;SDS011;64762;52.006;8.424;2023-04-06T09:49:31;18.55;;;9.07;;
76063;SDS011;64762;52.006;8.424;2023-04-06T09:51:59;22.40;;;10.07;;
76063;SDS011;64762;52.006;8.424;2023-04-06T09:54:30;25.42;;;9.70;;
76063;SDS011;64762;52.006;8.424;2023-04-06T10:02:13;21.45;;;9.20;;
76063;SDS011;64762;52.006;8.424;2023-04-06T10:05:05;20.55;;;9.52;;
76063;SDS011;64762;52.006;8.424;2023-04-06T10:07:34;20.60;;;9.57;;
76063;SDS011;64762;52.006;8.424;2023-04-06T10:10:01;19.70;;;9.25;;
76063;SDS011;64762;52.006;8.424;2023-04-06T10:12:27;18.98;;;9.20;;
76063;SDS011;64762;52.006;8.424;2023-04-06T10:14:53;26.47;;;9.90;;
76063;SDS011;64762;52.006;8.424;2023-04-06T10:17:18;20.08;;;9.90;;
76063;SDS011;64762;52.006;8.424;2023-04-06T10:19:49;21.83;;;10.80;;
76063;SDS011;64762;52.006;8.424;2023-04-06T10:22:29;25.15;;;11.02;;
76063;SDS011;64762;52.006;8.424;2023-04-06T10:24:59;22.00;;;10.27;;
76063;SDS011;64762;52.006;8.424;2023-04-06T10:27:28;23.90;;;11.70;;
76063;SDS011;64762;52.006;8.424;2023-04-06T10:29:54;24.63;;;11.55;;
76063;SDS011;64762;52.006;8.424;2023-04-06T10:32:33;25.25;;;11.95;;
76063;SDS011;64762;52.006;8.424;2023-04-06T10:35:11;32.03;;;11.73;;
76063;SDS011;64762;52.006;8.424;2023-04-06T10:37:51;25.42;;;11.48;;
76063;SDS011;64762;52.006;8.424;2023-04-06T10:40:18;25.48;;;11.40;;
76063;SDS011;64762;52.006;8.424;2023-04-06T10:42:44;25.88;;;11.35;;
76063;SDS011;64762;52.006;8.424;2023-04-06T10:45:43;24.17;;;11.15;;
76063;SDS011;64762;52.006;8.424;2023-04-06T10:48:12;27.67;;;10.38;;
76063;SDS011;64762;52.006;8.424;2023-04-06T10:50:48;27.75;;;11.55;;
76063;SDS011;64762;52.006;8.424;2023-04-06T10:53:26;27.98;;;11.55;;
76063;SDS011;64762;52.006;8.424;2023-04-06T10:55:54;23.48;;;10.38;;
76063;SDS011;64762;52.006;8.424;2023-04-06T10:58:20;27.17;;;12.60;;
76063;SDS011;64762;52.006;8.424;2023-04-06T11:00:49;26.30;;;10.88;;
76063;SDS011;64762;52.006;8.424;2023-04-06T11:03:15;29.60;;;12.60;;
76063;SDS011;64762;52.006;8.424;2023-04-06T11:05:44;28.95;;;12.23;;
76063;SDS011;64762;52.006;8.424;2023-04-06T11:08:10;23.25;;;10.75;;
76063;SDS011;64762;52.006;8.424;2023-04-06T11:10:46;26.77;;;11.70;;
76063;SDS011;64762;52.006;8.424;2023-04-06T11:13:12;23.63;;;11.33;;
76063;SDS011;64762;52.006;8.424;2023-04-06T11:15:37;25.40;;;11.00;;
76063;SDS011;64762;52.006;8.424;2023-04-06T11:18:05;23.20;;;10.87;;
76063;SDS011;64762;52.006;8.424;2023-04-06T11:20:31;28.05;;;12.10;;
76063;SDS011;64762;52.006;8.424;2023-04-06T11:22:56;29.23;;;12.47;;
76063;SDS011;64762;52.006;8.424;2023-04-06T11:25:23;26.15;;;11.90;;
76063;SDS011;64762;52.006;8.424;2023-04-06T11:27:49;26.35;;;10.23;;
76063;SDS011;64762;52.006;8.424;2023-04-06T11:30:15;29.73;;;12.05;;
76063;SDS011;64762;52.006;8.424;2023-04-06T11:32:45;24.20;;;11.20;;
76063;SDS011;64762;52.006;8.424;2023-04-06T11:35:11;26.25;;;11.93;;
76063;SDS011;64762;52.006;8.424;2023-04-06T11:37:47;30.52;;;12.60;;
76063;SDS011;64762;52.006;8.424;2023-04-06T11:40:14;29.00;;;11.52;;
76063;SDS011;64762;52.006;8.424;2023-04-06T11:42:39;27.73;;;11.60;;
76063;SDS011;64762;52.006;8.424;2023-04-06T11:45:05;27.17;;;11.15;;
76063;SDS011;64762;52.006;8.424;2023-04-06T11:47:33;25.38;;;12.48;;
76063;SDS011;64762;52.006;8.424;2023-04-06T11:50:09;30.67;;;11.75;;
76063;SDS011;64762;52.006;8.424;2023-04-06T11:52:37;31.30;;;13.25;;
76063;SDS011;64762;52.006;8.424;2023-04-06T11:55:37;26.10;;;11.10;;
76063;SDS011;64762;52.006;8.424;2023-04-06T11:58:01;24.92;;;11.10;;
76063;SDS011;64762;52.006;8.424;2023-04-06T12:00:27;27.90;;;10.82;;
76063;SDS011;64762;52.006;8.424;2023-04-06T12:02:59;23.77;;;10.60;;
76063;SDS011;64762;52.006;8.424;2023-04-06T12:05:24;23.65;;;10.05;;
76063;SDS011;64762;52.006;8.424;2023-04-06T12:07:50;30.77;;;11.27;;
76063;SDS011;64762;52.006;8.424;2023-04-06T12:10:15;23.70;;;9.85;;
76063;SDS011;64762;52.006;8.424;2023-04-06T12:12:40;24.63;;;9.67;;
76063;SDS011;64762;52.006;8.424;2023-04-06T12:15:06;22.77;;;9.27;;
76063;SDS011;64762;52.006;8.424;2023-04-06T12:17:32;25.40;;;9.70;;
76063;SDS011;64762;52.006;8.424;2023-04-06T12:19:57;22.00;;;10.80;;
76063;SDS011;64762;52.006;8.424;2023-04-06T12:22:23;20.00;;;9.27;;
76063;SDS011;64762;52.006;8.424;2023-04-06T12:24:48;22.57;;;8.83;;
76063;SDS011;64762;52.006;8.424;2023-04-06T12:27:13;21.80;;;9.33;;
76063;SDS011;64762;52.006;8.424;2023-04-06T12:29:38;20.40;;;9.37;;
76063;SDS011;64762;52.006;8.424;2023-04-06T12:32:04;23.67;;;9.80;;
76063;SDS011;64762;52.006;8.424;2023-04-06T12:34:30;21.80;;;9.60;;
76063;SDS011;64762;52.006;8.424;2023-04-06T12:36:56;22.73;;;10.33;;
76063;SDS011;64762;52.006;8.424;2023-04-06T12:39:21;24.98;;;10.57;;
76063;SDS011;64762;52.006;8.424;2023-04-06T12:41:47;24.65;;;11.00;;
76063;SDS011;64762;52.006;8.424;2023-04-06T12:44:13;21.10;;;9.27;;
76063;SDS011;64762;52.006;8.424;2023-04-06T12:46:38;20.08;;;8.43;;
76063;SDS011;64762;52.006;8.424;2023-04-06T12:49:04;18.88;;;8.70;;
76063;SDS011;64762;52.006;8.424;2023-04-06T12:51:30;24.20;;;9.60;;
76063;SDS011;64762;52.006;8.424;2023-04-06T12:53:56;22.40;;;9.07;;
76063;SDS011;64762;52.006;8.424;2023-04-06T12:56:21;21.10;;;8.85;;
76063;SDS011;64762;52.006;8.424;2023-04-06T12:58:47;25.23;;;10.07;;
76063;SDS011;64762;52.006;8.424;2023-04-06T13:01:13;22.88;;;9.70;;
76063;SDS011;64762;52.006;8.424;2023-04-06T13:03:38;18.23;;;8.65;;
76063;SDS011;64762;52.006;8.424;2023-04-06T13:06:04;23.20;;;9.15;;
76063;SDS011;64762;52.006;8.424;2023-04-06T13:08:30;30.60;;;9.93;;
76063;SDS011;64762;52.006;8.424;2023-04-06T13:10:55;24.85;;;9.60;;
76063;SDS011;64762;52.006;8.424;2023-04-06T13:13:25;21.05;;;9.32;;
76063;SDS011;64762;52.006;8.424;2023-04-06T13:15:51;25.70;;;9.48;;
76063;SDS011;64762;52.006;8.424;2023-04-06T13:18:19;29.88;;;10.45;;
76063;SDS011;64762;52.006;8.424;2023-04-06T13:20:46;27.42;;;9.10;;
76063;SDS011;64762;52.006;8.424;2023-04-06T13:23:11;18.70;;;7.97;;
76063;SDS011;64762;52.006;8.424;2023-04-06T13:25:37;21.70;;;8.33;;
76063;SDS011;64762;52.006;8.424;2023-04-06T13:28:02;20.23;;;8.30;;
76063;SDS011;64762;52.006;8.424;2023-04-06T13:30:28;23.88;;;9.23;;
76063;SDS011;64762;52.006;8.424;2023-04-06T13:32:53;24.90;;;9.07;;
76063;SDS011;64762;52.006;8.424;2023-04-06T13:35:18;25.70;;;9.65;;
76063;SDS011;64762;52.006;8.424;2023-04-06T13:37:44;27.40;;;9.02;;
76063;SDS011;64762;52.006;8.424;2023-04-06T13:40:10;20.90;;;9.43;;
76063;SDS011;64762;52.006;8.424;2023-04-06T13:42:36;24.23;;;9.95;;
76063;SDS011;64762;52.006;8.424;2023-04-06T13:45:02;24.15;;;10.23;;
76063;SDS011;64762;52.006;8.424;2023-04-06T13:47:28;26.33;;;9.77;;
76063;SDS011;64762;52.006;8.424;2023-04-06T13:49:54;24.30;;;9.68;;
76063;SDS011;64762;52.006;8.424;2023-04-06T13:52:21;26.83;;;10.00;;
76063;SDS011;64762;52.006;8.424;2023-04-06T13:54:46;24.45;;;9.93;;
76063;SDS011;64762;52.006;8.424;2023-04-06T13:57:13;28.20;;;11.02;;
76063;SDS011;64762;52.006;8.424;2023-04-06T13:59:39;27.27;;;11.43;;
76063;SDS011;64762;52.006;8.424;2023-04-06T14:02:06;23.70;;;9.45;;
76063;SDS011;64762;52.006;8.424;2023-04-06T14:04:32;20.90;;;9.13;;
76063;SDS011;64762;52.006;8.424;2023-04-06T14:06:58;26.88;;;10.38;;
76063;SDS011;64762;52.006;8.424;2023-04-06T14:09:23;31.80;;;11.73;;
76063;SDS011;64762;52.006;8.424;2023-04-06T14:11:49;28.08;;;10.43;;
76063;SDS011;64762;52.006;8.424;2023-04-06T14:14:15;27.98;;;11.10;;
76063;SDS011;64762;52.006;8.424;2023-04-06T14:16:40;29.52;;;11.20;;
76063;SDS011;64762;52.006;8.424;2023-04-06T14:19:09;24.15;;;10.43;;
76063;SDS011;64762;52.006;8.424;2023-04-06T14:21:36;29.02;;;11.15;;
76063;SDS011;64762;52.006;8.424;2023-04-06T14:24:02;27.15;;;10.85;;
76063;SDS011;64762;52.006;8.424;2023-04-06T14:26:28;28.90;;;10.50;;
76063;SDS011;64762;52.006;8.424;2023-04-06T14:28:53;25.48;;;11.13;;
76063;SDS011;64762;52.006;8.424;2023-04-06T14:31:19;29.53;;;11.93;;
76063;SDS011;64762;52.006;8.424;2023-04-06T14:33:44;26.90;;;11.00;;
76063;SDS011;64762;52.006;8.424;2023-04-06T14:36:10;29.15;;;11.18;;